EDDT/TXL METAR and TAF weather

Enter ICAO airport designator
Station Type Date Time Source
EDDT METAR 2018/01/19 17:20 UTC NOAA

EDDT 191720Z 27004KT 9999 -SHRA BKN021 BKN040 03/01 Q1007 TEMPO 4000 SHRASN BKN012


Station Type Date Time Source
EDDT Decoded METAR 2018/01/19 17:20 UTC NOAA

Berlin-Tegel, Germany (EDDT) 52-34N 013-19E 37M
Jan 19, 2018 - 12:20 PM EST / 2018.01.19 1720 UTC
Wind: from the W (270 degrees) at 5 MPH (4 KT):0
Visibility: greater than 7 mile(s):0
Sky conditions: mostly cloudy
Weather: light rain showers
Temperature: 37 F (3 C)
Dew Point: 33 F (1 C)
Relative Humidity: 86%
Pressure (altimeter): 29.74 in. Hg (1007 hPa)
ob: EDDT 191720Z 27004KT 9999 -SHRA BKN021 BKN040 03/01 Q1007 TEMPO 4000 SHRASN BKN012
cycle: 17

Station Type Date Time Source
EDDT TAF 2018/01/19 18:27 UTC NOAA

TAF EDDT 191700Z 1918/2018 23007KT 9999 BKN015
TEMPO 1918/1921 2500 SHSNRA BKN007 BKN015CB
TEMPO 1921/2002 BKN010
TEMPO 2002/2009 1200 SHSN BKN003 BKN008CB
TEMPO 2009/2014 BKN010
BECMG 2015/2018 15005KT


Example: see airport list